31 minutes ago
Runway Headwind Crosswind Length
7/25 5 kt 7 kt 3,117 ft
METAR EHLW 202225Z AUTO 02009KT 350V050 //// // OVC014 14/11 Q1010 RE//

METAR definition | Embed

METAR Drachten

Drachten is a small airport in Drachten, The Netherlands. The airport has one runway: 7/25 (3,117 ft)

Drachten didn't publish observations recently. Instead, we show you the report of Leeuwarden AB which is 17 mi away. This report was made on June 21, 2021 12:25 am, local time.

Airport observations

The wind is from direction northnortheast (020°) with a speed of 9 kt. The wind direction varies between north (350°) and northeast (050°).

The temperature and wind chill are 57 °F. The dew point is 52 °F, the relative humidity is 82%. The air pressure at sea level is 29.83 inHg (QNH).

Daylight period

Today the sun rises at 5:08 am and sets at 10:06 pm. This applies to Drachten, the universal daylight period may be different. The difference between the local time and UTC is +2 hour. Daylight saving time is currently in progress.

Historical data

Donate

Will you help us to keep Metar-Taf.com running?
Your contribution helps further development of the site and to pay for the expenses.

No more ads

Are you donating $ 5 or more? Then we'll never show you ads again, as a token of our eternal gratitude!
Log in before you donate

Do you want the flying weather of Drachten on your website? Read more   Free!